sensor_id;sensor_type;location;lat;lon;timestamp;temperature;humidity
22108;DHT22;11220;48.812;9.128;2024-01-11T00:01:16;16.80;65.60
22108;DHT22;11220;48.812;9.128;2024-01-11T00:03:42;16.80;65.90
22108;DHT22;11220;48.812;9.128;2024-01-11T00:06:10;16.80;65.60
22108;DHT22;11220;48.812;9.128;2024-01-11T00:08:36;16.80;65.60
22108;DHT22;11220;48.812;9.128;2024-01-11T00:11:01;16.80;65.60
22108;DHT22;11220;48.812;9.128;2024-01-11T00:13:27;17.40;66.00
22108;DHT22;11220;48.812;9.128;2024-01-11T00:15:53;16.60;65.60
22108;DHT22;11220;48.812;9.128;2024-01-11T00:18:19;16.70;65.60
22108;DHT22;11220;48.812;9.128;2024-01-11T00:20:44;16.60;65.70
22108;DHT22;11220;48.812;9.128;2024-01-11T00:23:10;16.70;65.70
22108;DHT22;11220;48.812;9.128;2024-01-11T00:25:35;16.70;65.70
22108;DHT22;11220;48.812;9.128;2024-01-11T00:28:01;16.70;65.80
22108;DHT22;11220;48.812;9.128;2024-01-11T00:30:27;16.70;65.80
22108;DHT22;11220;48.812;9.128;2024-01-11T00:32:52;17.90;66.70
22108;DHT22;11220;48.812;9.128;2024-01-11T00:35:18;17.30;66.20
22108;DHT22;11220;48.812;9.128;2024-01-11T00:37:44;17.20;66.30
22108;DHT22;11220;48.812;9.128;2024-01-11T00:40:10;16.60;65.90
22108;DHT22;11220;48.812;9.128;2024-01-11T00:42:35;16.60;65.90
22108;DHT22;11220;48.812;9.128;2024-01-11T00:45:01;16.60;65.90
22108;DHT22;11220;48.812;9.128;2024-01-11T00:47:26;17.70;66.60
22108;DHT22;11220;48.812;9.128;2024-01-11T00:49:52;17.20;66.30
22108;DHT22;11220;48.812;9.128;2024-01-11T00:52:18;16.60;65.90
22108;DHT22;11220;48.812;9.128;2024-01-11T00:54:43;16.90;66.10
22108;DHT22;11220;48.812;9.128;2024-01-11T00:57:09;16.50;65.90
22108;DHT22;11220;48.812;9.128;2024-01-11T00:59:34;16.50;65.90
22108;DHT22;11220;48.812;9.128;2024-01-11T01:02:00;16.50;65.90
22108;DHT22;11220;48.812;9.128;2024-01-11T01:04:25;16.50;66.10
22108;DHT22;11220;48.812;9.128;2024-01-11T01:06:51;16.50;66.00
22108;DHT22;11220;48.812;9.128;2024-01-11T01:09:16;16.50;66.00
22108;DHT22;11220;48.812;9.128;2024-01-11T01:11:42;16.50;66.10
22108;DHT22;11220;48.812;9.128;2024-01-11T01:14:07;16.50;66.00
22108;DHT22;11220;48.812;9.128;2024-01-11T01:16:33;17.40;66.60
22108;DHT22;11220;48.812;9.128;2024-01-11T01:18:58;16.40;66.00
22108;DHT22;11220;48.812;9.128;2024-01-11T01:21:24;16.40;66.00
22108;DHT22;11220;48.812;9.128;2024-01-11T01:23:50;16.40;66.00
22108;DHT22;11220;48.812;9.128;2024-01-11T01:26:15;16.40;66.00
22108;DHT22;11220;48.812;9.128;2024-01-11T01:28:41;17.00;66.60
22108;DHT22;11220;48.812;9.128;2024-01-11T01:31:06;16.40;66.10
22108;DHT22;11220;48.812;9.128;2024-01-11T01:33:32;16.30;66.10
22108;DHT22;11220;48.812;9.128;2024-01-11T01:35:57;17.40;66.90
22108;DHT22;11220;48.812;9.128;2024-01-11T01:38:23;17.70;67.40
22108;DHT22;11220;48.812;9.128;2024-01-11T01:40:49;17.60;66.90
22108;DHT22;11220;48.812;9.128;2024-01-11T01:43:15;16.50;66.20
22108;DHT22;11220;48.812;9.128;2024-01-11T01:45:40;17.90;68.20
22108;DHT22;11220;48.812;9.128;2024-01-11T01:48:07;16.30;66.20
22108;DHT22;11220;48.812;9.128;2024-01-11T01:50:32;16.30;66.20
22108;DHT22;11220;48.812;9.128;2024-01-11T01:52:58;17.00;66.70
22108;DHT22;11220;48.812;9.128;2024-01-11T01:55:25;16.20;66.20
22108;DHT22;11220;48.812;9.128;2024-01-11T01:57:52;16.20;66.20
22108;DHT22;11220;48.812;9.128;2024-01-11T02:00:18;16.50;66.40
22108;DHT22;11220;48.812;9.128;2024-01-11T02:02:44;16.60;66.60
22108;DHT22;11220;48.812;9.128;2024-01-11T02:05:12;17.80;67.20
22108;DHT22;11220;48.812;9.128;2024-01-11T02:07:39;16.20;66.20
22108;DHT22;11220;48.812;9.128;2024-01-11T02:10:06;16.90;66.70
22108;DHT22;11220;48.812;9.128;2024-01-11T02:12:32;16.20;66.20
22108;DHT22;11220;48.812;9.128;2024-01-11T02:14:59;16.20;66.30
22108;DHT22;11220;48.812;9.128;2024-01-11T02:17:25;16.10;66.30
22108;DHT22;11220;48.812;9.128;2024-01-11T02:19:50;16.20;66.30
22108;DHT22;11220;48.812;9.128;2024-01-11T02:22:22;16.20;66.30
22108;DHT22;11220;48.812;9.128;2024-01-11T02:24:49;16.20;66.30
22108;DHT22;11220;48.812;9.128;2024-01-11T02:27:15;17.40;67.10
22108;DHT22;11220;48.812;9.128;2024-01-11T02:29:40;17.40;67.40
22108;DHT22;11220;48.812;9.128;2024-01-11T02:32:06;16.10;66.40
22108;DHT22;11220;48.812;9.128;2024-01-11T02:34:32;16.00;66.20
22108;DHT22;11220;48.812;9.128;2024-01-11T02:36:58;16.10;66.30
22108;DHT22;11220;48.812;9.128;2024-01-11T02:39:25;16.10;66.40
22108;DHT22;11220;48.812;9.128;2024-01-11T02:41:52;16.60;66.70
22108;DHT22;11220;48.812;9.128;2024-01-11T02:44:17;16.10;66.40
22108;DHT22;11220;48.812;9.128;2024-01-11T02:46:43;16.10;66.40
22108;DHT22;11220;48.812;9.128;2024-01-11T02:49:09;17.40;67.40
22108;DHT22;11220;48.812;9.128;2024-01-11T02:51:34;16.00;66.40
22108;DHT22;11220;48.812;9.128;2024-01-11T02:54:01;16.10;66.50
22108;DHT22;11220;48.812;9.128;2024-01-11T02:56:26;16.00;66.40
22108;DHT22;11220;48.812;9.128;2024-01-11T02:58:52;16.00;66.40
22108;DHT22;11220;48.812;9.128;2024-01-11T03:01:17;16.80;67.10
22108;DHT22;11220;48.812;9.128;2024-01-11T03:03:43;17.00;67.20
22108;DHT22;11220;48.812;9.128;2024-01-11T03:06:08;16.70;67.30
22108;DHT22;11220;48.812;9.128;2024-01-11T03:08:35;16.00;66.50
22108;DHT22;11220;48.812;9.128;2024-01-11T03:11:00;15.90;66.40
22108;DHT22;11220;48.812;9.128;2024-01-11T03:13:26;15.90;66.40
22108;DHT22;11220;48.812;9.128;2024-01-11T03:15:52;15.80;66.80
22108;DHT22;11220;48.812;9.128;2024-01-11T03:18:17;15.90;66.50
22108;DHT22;11220;48.812;9.128;2024-01-11T03:20:43;15.90;66.70
22108;DHT22;11220;48.812;9.128;2024-01-11T03:23:08;16.10;66.70
22108;DHT22;11220;48.812;9.128;2024-01-11T03:25:34;15.90;66.50
22108;DHT22;11220;48.812;9.128;2024-01-11T03:28:00;15.90;66.50
22108;DHT22;11220;48.812;9.128;2024-01-11T03:30:25;15.90;66.50
22108;DHT22;11220;48.812;9.128;2024-01-11T03:32:51;15.90;66.50
22108;DHT22;11220;48.812;9.128;2024-01-11T03:35:18;15.90;66.50
22108;DHT22;11220;48.812;9.128;2024-01-11T03:37:43;15.90;66.50
22108;DHT22;11220;48.812;9.128;2024-01-11T03:40:09;15.80;66.50
22108;DHT22;11220;48.812;9.128;2024-01-11T03:42:35;15.80;66.50
22108;DHT22;11220;48.812;9.128;2024-01-11T03:45:00;15.90;66.50
22108;DHT22;11220;48.812;9.128;2024-01-11T03:47:26;15.80;66.50
22108;DHT22;11220;48.812;9.128;2024-01-11T03:49:51;15.90;66.50
22108;DHT22;11220;48.812;9.128;2024-01-11T03:52:17;15.80;66.60
22108;DHT22;11220;48.812;9.128;2024-01-11T03:54:42;15.80;66.50
22108;DHT22;11220;48.812;9.128;2024-01-11T03:57:08;15.80;66.50
22108;DHT22;11220;48.812;9.128;2024-01-11T03:59:33;15.80;66.60
22108;DHT22;11220;48.812;9.128;2024-01-11T04:02:00;15.80;66.50
22108;DHT22;11220;48.812;9.128;2024-01-11T04:04:25;15.80;66.60
22108;DHT22;11220;48.812;9.128;2024-01-11T04:06:51;15.70;66.50
22108;DHT22;11220;48.812;9.128;2024-01-11T04:09:17;15.70;66.50
22108;DHT22;11220;48.812;9.128;2024-01-11T04:11:43;15.70;66.60
22108;DHT22;11220;48.812;9.128;2024-01-11T04:14:09;15.80;66.60
22108;DHT22;11220;48.812;9.128;2024-01-11T04:16:39;15.70;66.50
22108;DHT22;11220;48.812;9.128;2024-01-11T04:19:05;15.80;66.60
22108;DHT22;11220;48.812;9.128;2024-01-11T04:21:30;15.70;66.50
22108;DHT22;11220;48.812;9.128;2024-01-11T04:23:56;15.70;66.50
22108;DHT22;11220;48.812;9.128;2024-01-11T04:26:22;15.70;66.50
22108;DHT22;11220;48.812;9.128;2024-01-11T04:28:49;15.70;67.40
22108;DHT22;11220;48.812;9.128;2024-01-11T04:31:15;15.70;66.40
22108;DHT22;11220;48.812;9.128;2024-01-11T04:33:42;15.60;66.50
22108;DHT22;11220;48.812;9.128;2024-01-11T04:36:09;15.70;66.70
22108;DHT22;11220;48.812;9.128;2024-01-11T04:38:34;15.70;66.70
22108;DHT22;11220;48.812;9.128;2024-01-11T04:41:00;15.70;66.60
22108;DHT22;11220;48.812;9.128;2024-01-11T04:43:26;15.60;66.60
22108;DHT22;11220;48.812;9.128;2024-01-11T04:45:51;16.90;67.50
22108;DHT22;11220;48.812;9.128;2024-01-11T04:48:17;15.60;66.50
22108;DHT22;11220;48.812;9.128;2024-01-11T04:50:44;15.60;66.50
22108;DHT22;11220;48.812;9.128;2024-01-11T04:53:09;15.60;66.60
22108;DHT22;11220;48.812;9.128;2024-01-11T04:55:35;15.60;66.50
22108;DHT22;11220;48.812;9.128;2024-01-11T04:58:00;15.60;66.50
22108;DHT22;11220;48.812;9.128;2024-01-11T05:00:26;15.60;66.50
22108;DHT22;11220;48.812;9.128;2024-01-11T05:02:51;15.60;66.50
22108;DHT22;11220;48.812;9.128;2024-01-11T05:05:17;15.60;66.50
22108;DHT22;11220;48.812;9.128;2024-01-11T05:07:42;17.20;68.10
22108;DHT22;11220;48.812;9.128;2024-01-11T05:10:08;15.60;66.50
22108;DHT22;11220;48.812;9.128;2024-01-11T05:12:33;15.50;66.00
22108;DHT22;11220;48.812;9.128;2024-01-11T05:14:59;15.50;65.80
22108;DHT22;11220;48.812;9.128;2024-01-11T05:17:26;17.20;66.90
22108;DHT22;11220;48.812;9.128;2024-01-11T05:19:52;15.50;65.40
22108;DHT22;11220;48.812;9.128;2024-01-11T05:22:18;15.60;65.10
22108;DHT22;11220;48.812;9.128;2024-01-11T05:24:43;15.50;64.70
22108;DHT22;11220;48.812;9.128;2024-01-11T05:27:09;15.60;64.40
22108;DHT22;11220;48.812;9.128;2024-01-11T05:29:34;15.60;64.30
22108;DHT22;11220;48.812;9.128;2024-01-11T05:32:00;15.50;64.30
22108;DHT22;11220;48.812;9.128;2024-01-11T05:34:25;15.60;64.30
22108;DHT22;11220;48.812;9.128;2024-01-11T05:36:51;16.90;65.10
22108;DHT22;11220;48.812;9.128;2024-01-11T05:39:16;15.60;64.00
22108;DHT22;11220;48.812;9.128;2024-01-11T05:41:45;15.50;63.90
22108;DHT22;11220;48.812;9.128;2024-01-11T05:44:10;15.70;64.00
22108;DHT22;11220;48.812;9.128;2024-01-11T05:46:36;15.70;64.20
22108;DHT22;11220;48.812;9.128;2024-01-11T05:49:01;16.50;64.40
22108;DHT22;11220;48.812;9.128;2024-01-11T05:51:27;16.10;64.10
22108;DHT22;11220;48.812;9.128;2024-01-11T05:53:53;15.60;63.90
22108;DHT22;11220;48.812;9.128;2024-01-11T05:56:19;16.80;64.40
22108;DHT22;11220;48.812;9.128;2024-01-11T05:58:46;15.60;63.70
22108;DHT22;11220;48.812;9.128;2024-01-11T06:01:11;15.80;63.80
22108;DHT22;11220;48.812;9.128;2024-01-11T06:03:37;15.80;63.80
22108;DHT22;11220;48.812;9.128;2024-01-11T06:06:04;15.80;64.00
22108;DHT22;11220;48.812;9.128;2024-01-11T06:08:30;15.80;64.10
22108;DHT22;11220;48.812;9.128;2024-01-11T06:10:56;15.90;64.60
22108;DHT22;11220;48.812;9.128;2024-01-11T06:13:21;15.90;65.10
22108;DHT22;11220;48.812;9.128;2024-01-11T06:15:47;15.80;65.60
22108;DHT22;11220;48.812;9.128;2024-01-11T06:18:13;16.50;65.90
22108;DHT22;11220;48.812;9.128;2024-01-11T06:20:38;15.80;65.60
22108;DHT22;11220;48.812;9.128;2024-01-11T06:23:04;17.40;66.90
22108;DHT22;11220;48.812;9.128;2024-01-11T06:25:29;16.00;65.70
22108;DHT22;11220;48.812;9.128;2024-01-11T06:27:55;17.10;66.60
22108;DHT22;11220;48.812;9.128;2024-01-11T06:30:21;16.00;65.80
22108;DHT22;11220;48.812;9.128;2024-01-11T06:32:46;16.20;67.10
22108;DHT22;11220;48.812;9.128;2024-01-11T06:35:12;16.10;65.90
22108;DHT22;11220;48.812;9.128;2024-01-11T06:37:38;16.30;65.70
22108;DHT22;11220;48.812;9.128;2024-01-11T06:40:03;17.40;66.30
22108;DHT22;11220;48.812;9.128;2024-01-11T06:42:30;16.30;65.30
22108;DHT22;11220;48.812;9.128;2024-01-11T06:44:56;16.30;65.30
22108;DHT22;11220;48.812;9.128;2024-01-11T06:47:21;17.60;66.10
22108;DHT22;11220;48.812;9.128;2024-01-11T06:49:47;17.90;66.40
22108;DHT22;11220;48.812;9.128;2024-01-11T06:52:12;16.40;65.00
22108;DHT22;11220;48.812;9.128;2024-01-11T06:54:39;16.30;64.90
22108;DHT22;11220;48.812;9.128;2024-01-11T06:57:05;16.00;64.60
22108;DHT22;11220;48.812;9.128;2024-01-11T06:59:30;16.50;64.90
22108;DHT22;11220;48.812;9.128;2024-01-11T07:01:56;16.60;64.80
22108;DHT22;11220;48.812;9.128;2024-01-11T07:04:21;16.60;64.60
22108;DHT22;11220;48.812;9.128;2024-01-11T07:06:47;16.60;64.50
22108;DHT22;11220;48.812;9.128;2024-01-11T07:09:13;18.30;65.60
22108;DHT22;11220;48.812;9.128;2024-01-11T07:11:38;16.70;64.30
22108;DHT22;11220;48.812;9.128;2024-01-11T07:14:04;16.80;64.30
22108;DHT22;11220;48.812;9.128;2024-01-11T07:16:30;18.20;65.00
22108;DHT22;11220;48.812;9.128;2024-01-11T07:18:55;17.40;64.50
22108;DHT22;11220;48.812;9.128;2024-01-11T07:21:24;16.90;63.90
22108;DHT22;11220;48.812;9.128;2024-01-11T07:23:55;16.90;63.70
22108;DHT22;11220;48.812;9.128;2024-01-11T07:26:22;16.90;63.60
22108;DHT22;11220;48.812;9.128;2024-01-11T07:28:48;17.80;64.00
22108;DHT22;11220;48.812;9.128;2024-01-11T07:31:13;17.70;63.90
22108;DHT22;11220;48.812;9.128;2024-01-11T07:33:39;18.20;64.30
22108;DHT22;11220;48.812;9.128;2024-01-11T07:36:06;17.10;63.20
22108;DHT22;11220;48.812;9.128;2024-01-11T07:38:32;17.10;63.10
22108;DHT22;11220;48.812;9.128;2024-01-11T07:40:57;17.10;63.20
22108;DHT22;11220;48.812;9.128;2024-01-11T07:43:23;17.20;63.10
22108;DHT22;11220;48.812;9.128;2024-01-11T07:45:51;17.10;63.10
22108;DHT22;11220;48.812;9.128;2024-01-11T07:48:17;17.50;63.60
22108;DHT22;11220;48.812;9.128;2024-01-11T07:50:43;17.70;65.10
22108;DHT22;11220;48.812;9.128;2024-01-11T07:53:09;17.40;64.60
22108;DHT22;11220;48.812;9.128;2024-01-11T07:55:35;17.30;64.10
22108;DHT22;11220;48.812;9.128;2024-01-11T07:58:00;18.90;64.20
22108;DHT22;11220;48.812;9.128;2024-01-11T08:00:26;17.20;65.00
22108;DHT22;11220;48.812;9.128;2024-01-11T08:02:52;17.30;64.40
22108;DHT22;11220;48.812;9.128;2024-01-11T08:05:19;18.40;64.20
22108;DHT22;11220;48.812;9.128;2024-01-11T08:07:45;17.20;64.60
22108;DHT22;11220;48.812;9.128;2024-01-11T08:10:11;18.90;65.30
22108;DHT22;11220;48.812;9.128;2024-01-11T08:12:36;17.70;64.00
22108;DHT22;11220;48.812;9.128;2024-01-11T08:15:03;16.60;64.20
22108;DHT22;11220;48.812;9.128;2024-01-11T08:17:31;17.30;65.30
22108;DHT22;11220;48.812;9.128;2024-01-11T08:19:57;17.20;64.40
22108;DHT22;11220;48.812;9.128;2024-01-11T08:22:23;17.30;65.10
22108;DHT22;11220;48.812;9.128;2024-01-11T08:24:48;18.20;65.70
22108;DHT22;11220;48.812;9.128;2024-01-11T08:27:16;18.70;66.00
22108;DHT22;11220;48.812;9.128;2024-01-11T08:29:43;18.50;65.00
22108;DHT22;11220;48.812;9.128;2024-01-11T08:32:09;18.30;64.30
22108;DHT22;11220;48.812;9.128;2024-01-11T08:34:34;18.60;64.40
22108;DHT22;11220;48.812;9.128;2024-01-11T08:37:02;18.00;65.80
22108;DHT22;11220;48.812;9.128;2024-01-11T08:39:28;15.90;63.10
22108;DHT22;11220;48.812;9.128;2024-01-11T08:41:53;17.10;64.50
22108;DHT22;11220;48.812;9.128;2024-01-11T08:44:23;18.40;65.70
22108;DHT22;11220;48.812;9.128;2024-01-11T08:46:49;18.80;64.90
22108;DHT22;11220;48.812;9.128;2024-01-11T08:49:15;17.70;65.10
22108;DHT22;11220;48.812;9.128;2024-01-11T08:51:40;18.60;64.30
22108;DHT22;11220;48.812;9.128;2024-01-11T08:54:06;19.00;64.40
22108;DHT22;11220;48.812;9.128;2024-01-11T08:56:34;17.50;63.50
22108;DHT22;11220;48.812;9.128;2024-01-11T08:58:59;17.50;63.50
22108;DHT22;11220;48.812;9.128;2024-01-11T09:01:25;18.90;64.50
22108;DHT22;11220;48.812;9.128;2024-01-11T09:03:50;17.50;63.80
22108;DHT22;11220;48.812;9.128;2024-01-11T09:06:16;18.10;64.40
22108;DHT22;11220;48.812;9.128;2024-01-11T09:08:41;17.50;64.00
22108;DHT22;11220;48.812;9.128;2024-01-11T09:11:07;17.60;64.20
22108;DHT22;11220;48.812;9.128;2024-01-11T09:13:33;17.60;64.30
22108;DHT22;11220;48.812;9.128;2024-01-11T09:15:58;18.80;65.10
22108;DHT22;11220;48.812;9.128;2024-01-11T09:18:24;17.60;64.30
22108;DHT22;11220;48.812;9.128;2024-01-11T09:20:49;18.50;64.90
22108;DHT22;11220;48.812;9.128;2024-01-11T09:23:16;19.00;65.20
22108;DHT22;11220;48.812;9.128;2024-01-11T09:25:42;17.60;64.40
22108;DHT22;11220;48.812;9.128;2024-01-11T09:28:08;17.60;64.50
22108;DHT22;11220;48.812;9.128;2024-01-11T09:30:34;18.40;64.90
22108;DHT22;11220;48.812;9.128;2024-01-11T09:32:59;17.60;64.70
22108;DHT22;11220;48.812;9.128;2024-01-11T09:35:25;17.60;64.50
22108;DHT22;11220;48.812;9.128;2024-01-11T09:37:51;18.30;64.90
22108;DHT22;11220;48.812;9.128;2024-01-11T09:40:18;17.60;64.70
22108;DHT22;11220;48.812;9.128;2024-01-11T09:42:43;17.60;64.60
22108;DHT22;11220;48.812;9.128;2024-01-11T09:45:13;18.50;65.20
22108;DHT22;11220;48.812;9.128;2024-01-11T09:47:39;18.30;65.00
22108;DHT22;11220;48.812;9.128;2024-01-11T09:50:06;18.70;65.20
22108;DHT22;11220;48.812;9.128;2024-01-11T09:52:33;17.90;65.70
22108;DHT22;11220;48.812;9.128;2024-01-11T09:55:02;17.70;64.60
22108;DHT22;11220;48.812;9.128;2024-01-11T09:57:32;17.60;64.50
22108;DHT22;11220;48.812;9.128;2024-01-11T10:00:04;18.80;65.30
22108;DHT22;11220;48.812;9.128;2024-01-11T10:02:33;17.70;64.50
22108;DHT22;11220;48.812;9.128;2024-01-11T10:04:58;18.70;65.40
22108;DHT22;11220;48.812;9.128;2024-01-11T10:07:25;17.70;64.40
22108;DHT22;11220;48.812;9.128;2024-01-11T10:09:50;18.80;65.30
22108;DHT22;11220;48.812;9.128;2024-01-11T10:12:20;18.70;65.20
22108;DHT22;11220;48.812;9.128;2024-01-11T10:14:48;17.70;64.60
22108;DHT22;11220;48.812;9.128;2024-01-11T10:17:14;18.60;65.00
22108;DHT22;11220;48.812;9.128;2024-01-11T10:19:39;17.90;64.70
22108;DHT22;11220;48.812;9.128;2024-01-11T10:22:05;19.00;65.60
22108;DHT22;11220;48.812;9.128;2024-01-11T10:24:32;17.70;64.60
22108;DHT22;11220;48.812;9.128;2024-01-11T10:26:58;18.10;64.80
22108;DHT22;11220;48.812;9.128;2024-01-11T10:29:31;17.70;64.60
22108;DHT22;11220;48.812;9.128;2024-01-11T10:31:56;17.60;64.60
22108;DHT22;11220;48.812;9.128;2024-01-11T10:34:25;17.70;64.70
22108;DHT22;11220;48.812;9.128;2024-01-11T10:36:51;17.70;64.70
22108;DHT22;11220;48.812;9.128;2024-01-11T10:39:17;17.60;64.60
22108;DHT22;11220;48.812;9.128;2024-01-11T10:41:47;17.70;64.70
22108;DHT22;11220;48.812;9.128;2024-01-11T10:44:19;18.40;65.10
22108;DHT22;11220;48.812;9.128;2024-01-11T10:46:49;17.70;64.50
22108;DHT22;11220;48.812;9.128;2024-01-11T10:49:17;17.50;64.30
22108;DHT22;11220;48.812;9.128;2024-01-11T10:51:58;17.70;64.30
22108;DHT22;11220;48.812;9.128;2024-01-11T10:54:24;17.80;64.60
22108;DHT22;11220;48.812;9.128;2024-01-11T10:56:51;17.70;64.30
22108;DHT22;11220;48.812;9.128;2024-01-11T10:59:19;17.70;64.30
22108;DHT22;11220;48.812;9.128;2024-01-11T11:01:46;17.70;64.40
22108;DHT22;11220;48.812;9.128;2024-01-11T11:04:13;17.80;64.50
22108;DHT22;11220;48.812;9.128;2024-01-11T11:06:41;17.80;64.50
22108;DHT22;11220;48.812;9.128;2024-01-11T11:09:09;18.30;64.70
22108;DHT22;11220;48.812;9.128;2024-01-11T11:11:36;18.20;64.50
22108;DHT22;11220;48.812;9.128;2024-01-11T11:14:04;17.80;64.20
22108;DHT22;11220;48.812;9.128;2024-01-11T11:16:30;17.90;64.30
22108;DHT22;11220;48.812;9.128;2024-01-11T11:18:56;17.80;64.10
22108;DHT22;11220;48.812;9.128;2024-01-11T11:21:22;17.80;64.10
22108;DHT22;11220;48.812;9.128;2024-01-11T11:23:50;17.80;64.10
22108;DHT22;11220;48.812;9.128;2024-01-11T11:26:18;17.80;64.10
22108;DHT22;11220;48.812;9.128;2024-01-11T11:28:44;18.00;64.20
22108;DHT22;11220;48.812;9.128;2024-01-11T11:31:13;17.80;64.10
22108;DHT22;11220;48.812;9.128;2024-01-11T11:33:40;17.90;64.20
22108;DHT22;11220;48.812;9.128;2024-01-11T11:36:12;17.80;64.10
22108;DHT22;11220;48.812;9.128;2024-01-11T11:38:41;17.80;64.00
22108;DHT22;11220;48.812;9.128;2024-01-11T11:41:07;18.90;64.80
22108;DHT22;11220;48.812;9.128;2024-01-11T11:43:32;17.90;64.60
22108;DHT22;11220;48.812;9.128;2024-01-11T11:45:58;17.80;64.10
22108;DHT22;11220;48.812;9.128;2024-01-11T11:53:33;17.80;64.30
22108;DHT22;11220;48.812;9.128;2024-01-11T11:55:59;19.00;65.20
22108;DHT22;11220;48.812;9.128;2024-01-11T11:58:25;18.30;65.00
22108;DHT22;11220;48.812;9.128;2024-01-11T12:00:50;17.70;64.10
22108;DHT22;11220;48.812;9.128;2024-01-11T12:03:17;17.80;64.20
22108;DHT22;11220;48.812;9.128;2024-01-11T12:05:42;19.40;65.40
22108;DHT22;11220;48.812;9.128;2024-01-11T12:08:08;17.80;64.40
22108;DHT22;11220;48.812;9.128;2024-01-11T12:10:34;19.40;64.80
22108;DHT22;11220;48.812;9.128;2024-01-11T12:13:00;18.30;64.00
22108;DHT22;11220;48.812;9.128;2024-01-11T12:15:29;18.20;64.40
22108;DHT22;11220;48.812;9.128;2024-01-11T12:17:58;17.90;63.80
22108;DHT22;11220;48.812;9.128;2024-01-11T12:20:26;17.90;64.10
22108;DHT22;11220;48.812;9.128;2024-01-11T12:22:53;19.60;64.80
22108;DHT22;11220;48.812;9.128;2024-01-11T12:25:19;18.70;64.60
22108;DHT22;11220;48.812;9.128;2024-01-11T12:27:47;18.10;63.90
22108;DHT22;11220;48.812;9.128;2024-01-11T12:30:12;19.20;65.10
22108;DHT22;11220;48.812;9.128;2024-01-11T12:32:42;17.90;64.00
22108;DHT22;11220;48.812;9.128;2024-01-11T12:35:08;19.10;64.50
22108;DHT22;11220;48.812;9.128;2024-01-11T12:37:34;19.10;64.60
22108;DHT22;11220;48.812;9.128;2024-01-11T12:39:59;18.00;63.90
22108;DHT22;11220;48.812;9.128;2024-01-11T12:42:28;18.60;64.20
22108;DHT22;11220;48.812;9.128;2024-01-11T12:44:54;18.60;64.30
22108;DHT22;11220;48.812;9.128;2024-01-11T12:47:19;18.00;64.10
22108;DHT22;11220;48.812;9.128;2024-01-11T12:49:45;18.00;63.80
22108;DHT22;11220;48.812;9.128;2024-01-11T12:52:19;18.70;64.60
22108;DHT22;11220;48.812;9.128;2024-01-11T12:54:45;19.40;65.00
22108;DHT22;11220;48.812;9.128;2024-01-11T12:57:12;18.00;64.00
22108;DHT22;11220;48.812;9.128;2024-01-11T12:59:38;18.40;64.10
22108;DHT22;11220;48.812;9.128;2024-01-11T13:02:08;18.80;64.40
22108;DHT22;11220;48.812;9.128;2024-01-11T13:04:34;17.90;63.70
22108;DHT22;11220;48.812;9.128;2024-01-11T13:06:59;18.00;63.60
22108;DHT22;11220;48.812;9.128;2024-01-11T13:09:26;19.50;64.40
22108;DHT22;11220;48.812;9.128;2024-01-11T13:11:52;18.40;63.80
22108;DHT22;11220;48.812;9.128;2024-01-11T13:14:18;19.50;64.60
22108;DHT22;11220;48.812;9.128;2024-01-11T13:16:45;19.20;64.30
22108;DHT22;11220;48.812;9.128;2024-01-11T13:19:11;19.20;64.70
22108;DHT22;11220;48.812;9.128;2024-01-11T13:21:37;18.00;63.50
22108;DHT22;11220;48.812;9.128;2024-01-11T13:24:03;17.90;63.50
22108;DHT22;11220;48.812;9.128;2024-01-11T13:26:29;18.00;63.70
22108;DHT22;11220;48.812;9.128;2024-01-11T13:28:54;18.50;64.10
22108;DHT22;11220;48.812;9.128;2024-01-11T13:31:20;19.10;64.50
22108;DHT22;11220;48.812;9.128;2024-01-11T13:33:46;18.00;64.60
22108;DHT22;11220;48.812;9.128;2024-01-11T13:36:12;18.00;64.50
22108;DHT22;11220;48.812;9.128;2024-01-11T13:38:37;18.30;64.40
22108;DHT22;11220;48.812;9.128;2024-01-11T13:41:03;19.20;64.90
22108;DHT22;11220;48.812;9.128;2024-01-11T13:43:30;18.10;64.30
22108;DHT22;11220;48.812;9.128;2024-01-11T13:45:56;19.00;64.90
22108;DHT22;11220;48.812;9.128;2024-01-11T13:48:21;19.30;65.30
22108;DHT22;11220;48.812;9.128;2024-01-11T13:50:47;19.50;65.60
22108;DHT22;11220;48.812;9.128;2024-01-11T13:53:13;18.10;64.40
22108;DHT22;11220;48.812;9.128;2024-01-11T13:55:38;18.00;64.40
22108;DHT22;11220;48.812;9.128;2024-01-11T13:58:04;18.10;64.60
22108;DHT22;11220;48.812;9.128;2024-01-11T14:00:31;18.70;65.00
22108;DHT22;11220;48.812;9.128;2024-01-11T14:02:57;18.40;64.90
22108;DHT22;11220;48.812;9.128;2024-01-11T14:05:22;19.50;65.50
22108;DHT22;11220;48.812;9.128;2024-01-11T14:07:48;18.60;65.00
22108;DHT22;11220;48.812;9.128;2024-01-11T14:10:14;18.00;64.70
22108;DHT22;11220;48.812;9.128;2024-01-11T14:12:40;18.30;64.90
22108;DHT22;11220;48.812;9.128;2024-01-11T14:15:08;18.00;64.80
22108;DHT22;11220;48.812;9.128;2024-01-11T14:17:37;18.00;64.80
22108;DHT22;11220;48.812;9.128;2024-01-11T14:20:04;19.20;65.70
22108;DHT22;11220;48.812;9.128;2024-01-11T14:22:31;17.90;65.10
22108;DHT22;11220;48.812;9.128;2024-01-11T14:24:57;18.10;65.10
22108;DHT22;11220;48.812;9.128;2024-01-11T14:27:23;19.00;65.60
22108;DHT22;11220;48.812;9.128;2024-01-11T14:29:49;17.90;65.10
22108;DHT22;11220;48.812;9.128;2024-01-11T14:32:15;19.10;66.10
22108;DHT22;11220;48.812;9.128;2024-01-11T14:34:42;18.70;66.30
22108;DHT22;11220;48.812;9.128;2024-01-11T14:37:10;18.30;65.30
22108;DHT22;11220;48.812;9.128;2024-01-11T14:39:36;16.60;64.40
22108;DHT22;11220;48.812;9.128;2024-01-11T14:42:02;17.90;66.60
22108;DHT22;11220;48.812;9.128;2024-01-11T14:44:27;18.00;65.20
22108;DHT22;11220;48.812;9.128;2024-01-11T14:46:53;19.50;66.20
22108;DHT22;11220;48.812;9.128;2024-01-11T14:49:18;19.50;66.00
22108;DHT22;11220;48.812;9.128;2024-01-11T14:51:44;18.00;65.10
22108;DHT22;11220;48.812;9.128;2024-01-11T14:54:09;18.00;65.10
22108;DHT22;11220;48.812;9.128;2024-01-11T14:56:35;18.80;65.60
22108;DHT22;11220;48.812;9.128;2024-01-11T14:59:01;19.00;66.00
22108;DHT22;11220;48.812;9.128;2024-01-11T15:01:27;18.70;65.40
22108;DHT22;11220;48.812;9.128;2024-01-11T15:03:52;17.50;65.00
22108;DHT22;11220;48.812;9.128;2024-01-11T15:06:18;19.10;65.70
22108;DHT22;11220;48.812;9.128;2024-01-11T15:08:44;19.30;65.90
22108;DHT22;11220;48.812;9.128;2024-01-11T15:11:09;17.90;65.80
22108;DHT22;11220;48.812;9.128;2024-01-11T15:13:35;18.50;65.10
22108;DHT22;11220;48.812;9.128;2024-01-11T15:16:01;19.10;65.80
22108;DHT22;11220;48.812;9.128;2024-01-11T15:18:27;18.00;65.10
22108;DHT22;11220;48.812;9.128;2024-01-11T15:20:52;19.00;65.30
22108;DHT22;11220;48.812;9.128;2024-01-11T15:23:18;18.20;64.70
22108;DHT22;11220;48.812;9.128;2024-01-11T15:25:44;17.90;64.60
22108;DHT22;11220;48.812;9.128;2024-01-11T15:28:11;18.00;64.60